Time;durP1;ratioP1;P1;durP2;ratioP2;P2;SDS_P1;SDS_P2;PMS_P1;PMS_P2;Temp;Humidity;BMP_temperature;BMP_pressure;BME280_temperature;BME280_humidity;BME280_pressure;Samples;Min_cycle;Max_cycle;Signal;HPM_P1;HPM_P2
2023/12/01 00:00:35;;;;;;;37.53;27.23;;;;;;;3.17;81.01;94251.34;4185291;28;20135;-70
2023/12/01 00:02:37;;;;;;;35.58;26.98;;;;;;;3.26;80.88;94240.22;4184041;28;20052;-69
2023/12/01 00:04:43;;;;;;;34.03;26.27;;;;;;;3.40;80.56;94239.91;4198277;28;20523;-71
2023/12/01 00:06:44;;;;;;;34.47;25.85;;;;;;;3.54;80.69;94246.53;4187910;28;20053;-68
2023/12/01 00:08:46;;;;;;;36.65;26.08;;;;;;;3.42;79.84;94235.44;4188957;28;20479;-69
2023/12/01 00:10:48;;;;;;;36.35;26.85;;;;;;;3.53;80.42;94255.25;4194624;28;20134;-71
2023/12/01 00:12:50;;;;;;;34.70;26.10;;;;;;;3.46;79.60;94234.22;4192688;28;20102;-69
2023/12/01 00:14:52;;;;;;;34.10;26.05;;;;;;;3.49;79.91;94240.91;4190298;28;20048;-68
2023/12/01 00:16:54;;;;;;;33.05;25.50;;;;;;;3.56;79.51;94255.00;4174168;28;20144;-71
2023/12/01 00:18:56;;;;;;;36.67;25.90;;;;;;;3.71;80.14;94241.72;4182694;28;20511;-66
2023/12/01 00:20:58;;;;;;;32.42;26.35;;;;;;;3.65;79.15;94237.88;4170242;28;20087;-67
2023/12/01 00:23:00;;;;;;;34.20;25.67;;;;;;;3.63;79.34;94237.16;4191266;28;20055;-70
2023/12/01 00:25:01;;;;;;;29.90;24.45;;;;;;;3.70;79.40;94256.44;4174405;28;20120;-67
2023/12/01 00:27:04;;;;;;;34.30;26.02;;;;;;;3.62;78.97;94233.75;4193431;28;20543;-67
2023/12/01 00:29:06;;;;;;;32.17;26.42;;;;;;;3.71;79.19;94226.19;4195217;28;20041;-68
2023/12/01 00:31:07;;;;;;;34.35;25.42;;;;;;;3.77;79.04;94220.47;4193994;28;20406;-68
2023/12/01 00:33:09;;;;;;;33.00;25.65;;;;;;;3.86;78.73;94223.09;4193649;28;20415;-70
2023/12/01 00:35:11;;;;;;;35.58;26.63;;;;;;;3.93;78.39;94230.34;4176695;28;20045;-69
2023/12/01 00:37:16;;;;;;;35.08;26.65;;;;;;;3.72;78.26;94207.06;4193924;28;20048;-68
2023/12/01 00:39:18;;;;;;;33.50;25.63;;;;;;;3.55;79.50;94243.00;4191678;28;20048;-68
2023/12/01 00:41:20;;;;;;;37.72;26.90;;;;;;;3.42;79.81;94219.06;4193943;28;20491;-68
2023/12/01 00:43:22;;;;;;;33.72;26.35;;;;;;;3.31;80.34;94216.53;4194099;28;20059;-68
2023/12/01 00:45:24;;;;;;;33.40;26.00;;;;;;;3.42;81.09;94227.66;4193474;28;20079;-68
2023/12/01 00:47:26;;;;;;;33.35;25.85;;;;;;;3.52;80.14;94230.28;4193179;28;20150;-66
2023/12/01 00:49:28;;;;;;;33.05;25.10;;;;;;;3.58;79.55;94234.97;4196400;28;20044;-67
2023/12/01 00:51:30;;;;;;;34.35;26.65;;;;;;;3.62;79.52;94210.44;4193624;28;20125;-69
2023/12/01 00:53:32;;;;;;;34.05;25.20;;;;;;;3.66;79.28;94245.50;4193425;28;20052;-68
2023/12/01 00:55:34;;;;;;;34.03;27.10;;;;;;;3.75;79.99;94249.09;4188269;28;20121;-68
2023/12/01 00:57:36;;;;;;;34.78;25.52;;;;;;;3.82;79.18;94215.72;4193756;28;20044;-68
2023/12/01 00:59:37;;;;;;;29.85;24.38;;;;;;;3.78;78.68;94243.66;4195111;28;20076;-69
2023/12/01 01:01:39;;;;;;;32.22;24.98;;;;;;;3.77;78.66;94205.75;4177324;28;20088;-69
2023/12/01 01:03:41;;;;;;;31.83;24.48;;;;;;;3.72;79.32;94240.75;4196836;28;20079;-69
2023/12/01 01:05:43;;;;;;;31.83;25.20;;;;;;;3.75;78.80;94219.78;4196946;28;20058;-69
2023/12/01 01:07:45;;;;;;;32.78;25.58;;;;;;;3.73;79.12;94201.78;4193123;28;20110;-68
2023/12/01 01:09:47;;;;;;;31.55;24.00;;;;;;;3.81;79.11;94229.66;4197675;28;20118;-69
2023/12/01 01:11:49;;;;;;;32.92;24.10;;;;;;;3.84;79.00;94193.09;4196065;28;20083;-69
2023/12/01 01:13:50;;;;;;;33.53;25.25;;;;;;;3.46;79.87;94213.50;4195171;28;20053;-68
2023/12/01 01:15:52;;;;;;;30.58;24.85;;;;;;;3.54;79.88;94214.63;4196323;28;20054;-67
2023/12/01 01:17:54;;;;;;;30.45;25.13;;;;;;;3.59;80.38;94202.94;4196320;28;20049;-68
2023/12/01 01:19:56;;;;;;;33.92;24.63;;;;;;;3.67;79.75;94223.81;4178580;28;20130;-68
2023/12/01 01:21:58;;;;;;;34.85;25.40;;;;;;;3.73;79.63;94193.19;4190289;28;20057;-68
2023/12/01 01:24:00;;;;;;;37.67;25.90;;;;;;;3.59;79.16;94184.81;4192947;28;20505;-67
2023/12/01 01:26:02;;;;;;;32.83;25.25;;;;;;;3.65;79.53;94220.53;4195588;28;20048;-69
2023/12/01 01:28:04;;;;;;;33.30;26.45;;;;;;;3.51;79.61;94213.13;4193972;28;20458;-68
2023/12/01 01:30:07;;;;;;;31.05;25.20;;;;;;;3.24;80.66;94188.56;4196289;28;20367;-69
2023/12/01 01:32:08;;;;;;;32.85;25.42;;;;;;;3.37;81.20;94229.78;4189544;28;20044;-69
2023/12/01 01:34:10;;;;;;;30.63;25.05;;;;;;;3.34;79.96;94173.09;4197105;28;20063;-68
2023/12/01 01:36:13;;;;;;;32.05;26.42;;;;;;;3.16;81.54;94206.53;4195264;28;20150;-69
2023/12/01 01:38:15;;;;;;;32.78;24.40;;;;;;;3.31;81.24;94201.81;4197089;28;20064;-68
2023/12/01 01:40:17;;;;;;;34.95;26.55;;;;;;;3.27;80.83;94164.22;4192195;28;20247;-67
2023/12/01 01:42:19;;;;;;;31.90;25.38;;;;;;;3.35;81.28;94189.44;4173258;28;20040;-70
2023/12/01 01:44:20;;;;;;;32.50;24.88;;;;;;;3.46;80.72;94192.81;4192752;28;20426;-71
2023/12/01 01:46:23;;;;;;;36.20;26.33;;;;;;;3.33;80.34;94186.97;4169337;28;20140;-69
2023/12/01 01:48:26;;;;;;;36.83;25.75;;;;;;;3.36;80.95;94191.09;4195941;28;20090;-70
2023/12/01 01:50:27;;;;;;;32.85;26.55;;;;;;;3.31;80.92;94207.00;4153802;28;20501;-68
2023/12/01 01:52:29;;;;;;;32.92;24.90;;;;;;;3.38;80.87;94195.19;4191113;28;20044;-68
2023/12/01 01:54:32;;;;;;;33.83;26.15;;;;;;;3.26;80.90;94194.44;4196879;28;20070;-69
2023/12/01 01:56:34;;;;;;;33.03;25.35;;;;;;;3.24;80.68;94160.09;4160484;28;20583;-69
2023/12/01 01:58:35;;;;;;;34.30;25.90;;;;;;;3.16;81.48;94206.53;4178498;28;20049;-69
2023/12/01 02:00:38;;;;;;;37.78;26.65;;;;;;;3.15;80.81;94157.47;4189225;28;20045;-69
2023/12/01 02:02:39;;;;;;;32.75;26.27;;;;;;;3.19;81.66;94214.03;4193372;28;20132;-68
2023/12/01 02:04:41;;;;;;;35.97;27.35;;;;;;;3.33;81.22;94204.28;4175810;28;20081;-67
2023/12/01 02:06:45;;;;;;;34.55;27.10;;;;;;;2.94;81.79;94144.53;4179138;28;20052;-69
2023/12/01 02:08:47;;;;;;;35.78;26.50;;;;;;;2.92;82.41;94190.41;4194064;28;20049;-70
2023/12/01 02:10:49;;;;;;;34.95;27.33;;;;;;;3.11;82.37;94153.47;4186718;28;20081;-69
2023/12/01 02:12:51;;;;;;;34.95;26.52;;;;;;;3.24;81.85;94195.53;4174343;28;20457;-69
2023/12/01 02:14:53;;;;;;;35.90;27.58;;;;;;;3.42;82.04;94175.88;4191996;28;20733;-69
2023/12/01 02:16:56;;;;;;;36.35;27.30;;;;;;;3.39;80.68;94141.63;4190276;28;20457;-68
2023/12/01 02:18:59;;;;;;;31.48;25.02;;;;;;;3.42;80.57;94196.59;4178967;28;20051;-70
2023/12/01 02:21:01;;;;;;;38.10;28.40;;;;;;;3.38;80.99;94158.13;4170848;28;20147;-69
2023/12/01 02:23:03;;;;;;;32.63;25.73;;;;;;;3.49;80.32;94165.81;4195851;28;20083;-68
2023/12/01 02:25:05;;;;;;;33.55;26.23;;;;;;;3.62;80.37;94169.00;4195726;28;20147;-68
2023/12/01 02:27:07;;;;;;;33.22;25.83;;;;;;;3.71;80.40;94185.53;4195397;28;20099;-68
2023/12/01 02:29:08;;;;;;;33.45;26.42;;;;;;;3.77;79.31;94163.47;4189077;28;20043;-67
2023/12/01 02:31:10;;;;;;;36.70;25.60;;;;;;;3.67;79.13;94147.88;4167148;28;20064;-68
2023/12/01 02:33:15;;;;;;;34.03;26.42;;;;;;;3.35;80.30;94189.44;4194053;28;20044;-68
2023/12/01 02:35:17;;;;;;;33.80;26.08;;;;;;;3.40;80.81;94156.22;4194079;28;20058;-68
2023/12/01 02:37:19;;;;;;;32.95;24.08;;;;;;;3.51;80.46;94171.69;4192267;28;20053;-68
2023/12/01 02:39:21;;;;;;;33.05;24.08;;;;;;;3.63;80.76;94206.09;4188993;28;20036;-68
2023/12/01 02:41:22;;;;;;;32.95;25.02;;;;;;;3.65;79.82;94181.69;4174693;28;20131;-69
2023/12/01 02:43:24;;;;;;;30.88;24.10;;;;;;;3.68;79.92;94171.09;4193069;28;20052;-69
2023/12/01 02:45:28;;;;;;;33.28;25.73;;;;;;;3.73;79.66;94178.47;4196342;28;20428;-69
2023/12/01 02:47:29;;;;;;;31.00;24.60;;;;;;;3.87;79.91;94185.03;4192416;28;20053;-68
2023/12/01 02:49:31;;;;;;;31.25;23.65;;;;;;;3.76;79.36;94174.78;4179433;28;20499;-71
2023/12/01 02:51:33;;;;;;;29.90;23.33;;;;;;;3.65;79.90;94155.78;4177520;28;20538;-68
2023/12/01 02:53:35;;;;;;;29.48;23.75;;;;;;;3.64;79.74;94193.00;4190745;28;20499;-69
2023/12/01 02:55:37;;;;;;;29.23;22.83;;;;;;;3.62;80.27;94145.69;4185122;28;20396;-69
2023/12/01 02:57:42;;;;;;;29.75;22.73;;;;;;;3.78;80.28;94178.88;4193494;28;20059;-69
2023/12/01 02:59:44;;;;;;;31.40;22.35;;;;;;;3.92;79.85;94177.72;4186331;28;20083;-69
2023/12/01 03:01:45;;;;;;;26.92;21.70;;;;;;;3.88;79.17;94159.00;4193967;28;20521;-67
2023/12/01 03:03:47;;;;;;;30.38;22.63;;;;;;;3.93;79.29;94161.19;4184084;28;20049;-69
2023/12/01 03:05:49;;;;;;;26.27;21.20;;;;;;;4.03;79.70;94158.66;4183041;28;20068;-69
2023/12/01 03:07:51;;;;;;;28.73;22.02;;;;;;;4.16;79.47;94163.59;4161278;28;20045;-68
2023/12/01 03:09:53;;;;;;;29.15;21.73;;;;;;;4.19;78.81;94163.31;4187325;28;20137;-68
2023/12/01 03:11:55;;;;;;;28.38;21.30;;;;;;;4.22;77.95;94134.53;4185120;28;20044;-69
2023/12/01 03:13:57;;;;;;;25.65;19.25;;;;;;;4.26;78.67;94193.78;4194954;28;20080;-68
2023/12/01 03:15:58;;;;;;;28.27;21.02;;;;;;;4.28;77.79;94154.72;4187144;28;20051;-69
2023/12/01 03:18:00;;;;;;;26.23;20.20;;;;;;;4.33;78.01;94154.34;4188211;28;20044;-69
2023/12/01 03:20:10;;;;;;;24.73;19.17;;;;;;;4.34;77.77;94169.75;4184701;28;20542;-68
2023/12/01 03:22:12;;;;;;;24.05;18.17;;;;;;;4.16;78.00;94163.59;4188561;28;20483;-68
2023/12/01 03:24:14;;;;;;;24.15;18.38;;;;;;;4.20;78.74;94183.13;4193411;28;20176;-68
2023/12/01 03:26:18;;;;;;;22.65;18.30;;;;;;;4.28;78.58;94158.16;4192185;28;20124;-66
2023/12/01 03:28:20;;;;;;;24.02;18.70;;;;;;;4.35;78.44;94144.66;4194214;28;20080;-67
2023/12/01 03:30:22;;;;;;;25.58;19.27;;;;;;;4.41;78.08;94165.69;4192506;28;20498;-68
2023/12/01 03:32:24;;;;;;;24.63;17.73;;;;;;;4.33;77.71;94149.97;4185748;28;20418;-69
2023/12/01 03:34:26;;;;;;;25.15;18.42;;;;;;;4.23;78.07;94144.75;4183520;28;20131;-66
2023/12/01 03:36:28;;;;;;;23.02;18.50;;;;;;;4.34;78.36;94158.56;4170445;28;20076;-68
2023/12/01 03:38:30;;;;;;;24.70;18.63;;;;;;;4.23;77.87;94113.66;4181088;28;20128;-67
2023/12/01 03:40:33;;;;;;;24.67;18.42;;;;;;;4.30;78.39;94117.38;4186076;28;20398;-68
2023/12/01 03:42:41;;;;;;;21.85;17.58;;;;;;;4.31;78.50;94131.94;4178902;28;20073;-66
2023/12/01 03:44:43;;;;;;;22.92;17.98;;;;;;;4.33;78.09;94172.50;4191849;28;20056;-69
2023/12/01 03:46:45;;;;;;;21.83;14.70;;;;;;;4.29;78.01;94112.31;4186955;28;20045;-68
2023/12/01 03:48:47;;;;;;;21.65;16.23;;;;;;;4.42;78.21;94128.41;4192789;28;20056;-68
2023/12/01 03:50:50;;;;;;;21.70;15.43;;;;;;;4.51;77.66;94166.50;4188656;28;20074;-68
2023/12/01 03:52:52;;;;;;;18.17;14.27;;;;;;;4.68;78.24;94171.97;4173949;28;20061;-68
2023/12/01 03:54:53;;;;;;;23.35;16.40;;;;;;;4.62;77.31;94149.97;4189919;28;20519;-69
2023/12/01 03:56:55;;;;;;;18.75;15.73;;;;;;;4.64;77.35;94148.06;4193771;28;20192;-68
2023/12/01 03:58:58;;;;;;;16.98;14.32;;;;;;;4.67;77.87;94175.53;4192879;28;20049;-69
2023/12/01 04:01:05;;;;;;;17.83;14.52;;;;;;;4.66;77.14;94146.16;4193531;28;20060;-68
2023/12/01 04:03:07;;;;;;;19.45;15.20;;;;;;;4.80;77.55;94154.50;4192731;28;20067;-69
2023/12/01 04:05:17;;;;;;;19.70;13.88;;;;;;;4.59;77.39;94139.06;4185656;28;20068;-70
2023/12/01 04:07:22;;;;;;;21.60;14.70;;;;;;;4.62;77.79;94146.56;4194596;28;20459;-68
2023/12/01 04:09:24;;;;;;;18.25;14.90;;;;;;;4.65;77.57;94167.06;4194349;28;20048;-69
2023/12/01 04:11:26;;;;;;;19.33;14.75;;;;;;;4.65;77.48;94154.09;4184062;28;20059;-70
2023/12/01 04:13:27;;;;;;;17.33;13.93;;;;;;;4.67;77.97;94152.19;4193530;28;20052;-68
2023/12/01 04:15:29;;;;;;;19.73;14.32;;;;;;;4.83;77.82;94157.63;4195085;28;20049;-67
2023/12/01 04:17:32;;;;;;;17.55;14.23;;;;;;;4.81;77.47;94136.19;4191268;28;20058;-68
2023/12/01 04:19:35;;;;;;;19.60;14.07;;;;;;;4.87;77.37;94114.88;4190802;28;20048;-67
2023/12/01 04:21:37;;;;;;;18.02;13.80;;;;;;;4.90;77.28;94147.50;4168983;28;20060;-70
2023/12/01 04:23:40;;;;;;;16.92;12.82;;;;;;;4.75;77.75;94121.16;4192745;28;20486;-66
2023/12/01 04:25:46;;;;;;;17.90;13.60;;;;;;;4.80;77.23;94165.72;4197757;28;20450;-67
2023/12/01 04:27:50;;;;;;;18.88;14.10;;;;;;;4.83;77.39;94151.63;4196282;28;20062;-68
2023/12/01 04:29:52;;;;;;;19.10;14.57;;;;;;;4.79;76.99;94119.94;4163978;28;20132;-66
2023/12/01 04:31:57;;;;;;;18.83;15.27;;;;;;;4.82;77.59;94168.97;4197115;28;20052;-69
2023/12/01 04:34:02;;;;;;;19.00;13.68;;;;;;;4.38;78.61;94082.13;4176415;28;20059;-67
2023/12/01 04:36:06;;;;;;;17.60;14.02;;;;;;;4.55;78.76;94148.09;4197300;28;20056;-66
2023/12/01 04:38:09;;;;;;;18.90;14.18;;;;;;;4.44;78.63;94053.88;4196967;28;20051;-68
2023/12/01 04:40:17;;;;;;;16.92;13.50;;;;;;;4.52;78.95;94128.44;4179970;28;20121;-69
2023/12/01 04:42:19;;;;;;;20.23;13.77;;;;;;;4.70;78.84;94120.78;4196879;28;20118;-68
2023/12/01 04:44:21;;;;;;;19.17;13.48;;;;;;;4.79;77.66;94135.50;4198205;28;20083;-68
2023/12/01 04:46:23;;;;;;;18.35;13.63;;;;;;;4.91;77.40;94134.41;4193466;28;20048;-68
2023/12/01 04:48:25;;;;;;;22.60;18.50;;;;;;;4.84;77.12;94116.91;4181841;28;20041;-68
2023/12/01 04:50:28;;;;;;;17.25;13.40;;;;;;;4.77;78.34;94106.28;4184248;28;20061;-68
2023/12/01 04:52:30;;;;;;;14.57;12.35;;;;;;;4.83;78.14;94141.25;4188517;28;20539;-67
2023/12/01 04:54:31;;;;;;;16.95;12.93;;;;;;;4.91;77.55;94136.19;4191454;28;20060;-69
2023/12/01 04:56:33;;;;;;;17.45;12.07;;;;;;;4.94;76.94;94125.53;4197796;28;20044;-68
2023/12/01 04:58:35;;;;;;;20.77;13.88;;;;;;;4.92;77.86;94094.50;4189844;28;20049;-69
2023/12/01 05:00:37;;;;;;;16.75;11.77;;;;;;;5.01;77.59;94128.38;4191836;28;20060;-68
2023/12/01 05:02:39;;;;;;;16.33;11.80;;;;;;;4.93;77.73;94070.19;4191751;28;20056;-69
2023/12/01 05:04:41;;;;;;;18.20;11.48;;;;;;;5.01;77.98;94123.19;4185583;28;20128;-69
2023/12/01 05:06:43;;;;;;;15.27;10.55;;;;;;;5.07;78.08;94133.03;4175278;28;20491;-69
2023/12/01 05:08:45;;;;;;;15.20;11.88;;;;;;;5.11;77.81;94108.41;4197222;28;20067;-72
2023/12/01 05:10:47;;;;;;;14.43;11.38;;;;;;;5.19;77.97;94150.09;4192769;28;20383;-71
2023/12/01 05:12:54;;;;;;;15.48;11.30;;;;;;;5.20;77.32;94146.50;4190141;28;20415;-70
2023/12/01 05:14:56;;;;;;;16.67;10.82;;;;;;;5.31;77.37;94116.97;4191525;28;20491;-71
2023/12/01 05:16:58;;;;;;;17.35;12.18;;;;;;;5.16;77.92;94129.56;4187946;28;20081;-69
2023/12/01 05:19:00;;;;;;;16.75;13.02;;;;;;;5.18;77.94;94173.59;4171599;28;20101;-70
2023/12/01 05:21:08;;;;;;;16.98;12.57;;;;;;;5.11;77.78;94137.78;4191004;28;20068;-69
2023/12/01 05:23:10;;;;;;;17.35;13.13;;;;;;;5.14;77.72;94113.31;4197891;28;20110;-70
2023/12/01 05:25:14;;;;;;;20.02;13.38;;;;;;;5.25;77.96;94135.72;4192849;28;20417;-69
2023/12/01 05:27:16;;;;;;;17.27;13.20;;;;;;;5.31;77.31;94136.00;4188073;28;20477;-70
2023/12/01 05:29:18;;;;;;;17.67;13.23;;;;;;;5.23;77.58;94109.09;4198299;28;20413;-70
2023/12/01 05:31:19;;;;;;;15.68;12.00;;;;;;;5.32;77.29;94142.81;4161089;28;20144;-69
2023/12/01 05:33:21;;;;;;;15.57;12.25;;;;;;;5.38;77.35;94131.03;4194307;28;20059;-70
2023/12/01 05:35:26;;;;;;;17.70;12.75;;;;;;;5.38;77.16;94148.38;4186849;28;20479;-71
2023/12/01 05:37:28;;;;;;;16.08;11.68;;;;;;;5.41;77.18;94140.31;4192781;28;20102;-69
2023/12/01 05:39:30;;;;;;;16.90;12.02;;;;;;;4.90;77.99;94109.44;4193780;28;20041;-70
2023/12/01 05:41:31;;;;;;;17.40;13.15;;;;;;;4.95;78.55;94168.72;4193010;28;20053;-70
2023/12/01 05:43:33;;;;;;;19.42;12.75;;;;;;;5.03;78.99;94136.84;4187690;28;20139;-73
2023/12/01 05:45:35;;;;;;;18.35;13.95;;;;;;;5.07;78.67;94125.22;4197321;28;20561;-69
2023/12/01 05:47:42;;;;;;;19.73;13.82;;;;;;;5.19;78.40;94121.53;4190030;28;20083;-71
2023/12/01 05:49:44;;;;;;;16.42;12.88;;;;;;;5.32;77.92;94137.59;4179642;28;20051;-68
2023/12/01 05:51:47;;;;;;;16.75;11.95;;;;;;;5.41;77.33;94127.34;4196929;28;20506;-69
2023/12/01 05:53:49;;;;;;;17.58;13.55;;;;;;;5.46;77.26;94149.34;4164006;28;20081;-71
2023/12/01 05:55:51;;;;;;;17.90;13.32;;;;;;;5.38;76.95;94132.81;4163652;28;20413;-72
2023/12/01 05:58:04;;;;;;;19.17;13.00;;;;;;;5.44;77.42;94145.22;4191430;28;20044;-71
2023/12/01 06:00:12;;;;;;;16.73;14.05;;;;;;;5.49;76.74;94162.03;4197111;28;20499;-72
2023/12/01 06:02:14;;;;;;;21.45;13.98;;;;;;;5.30;76.58;94103.16;4191377;28;20045;-71
2023/12/01 06:04:16;;;;;;;19.00;13.73;;;;;;;5.22;77.64;94152.38;4201731;28;20083;-72
2023/12/01 06:06:18;;;;;;;19.30;14.05;;;;;;;5.12;77.86;94123.88;4187756;28;20549;-71
2023/12/01 06:08:20;;;;;;;19.75;13.82;;;;;;;5.22;78.02;94126.41;4195829;28;20052;-71
2023/12/01 06:10:23;;;;;;;21.00;14.15;;;;;;;5.33;77.54;94121.09;4196844;28;20188;-72
2023/12/01 06:12:28;;;;;;;18.27;14.30;;;;;;;5.45;77.76;94126.09;4195156;28;20127;-70
2023/12/01 06:14:31;;;;;;;17.50;13.90;;;;;;;5.53;77.13;94137.41;4162613;28;20059;-70
2023/12/01 06:16:33;;;;;;;22.33;12.93;;;;;;;5.47;76.50;94108.59;4195757;28;20053;-72
2023/12/01 06:18:35;;;;;;;19.48;14.38;;;;;;;5.52;76.79;94147.94;4196924;28;20118;-70
2023/12/01 06:20:37;;;;;;;17.23;13.80;;;;;;;5.60;76.82;94144.66;4179943;28;20049;-71
2023/12/01 06:22:39;;;;;;;19.77;13.82;;;;;;;5.63;76.11;94145.16;4196859;28;20052;-70
2023/12/01 06:24:41;;;;;;;16.67;13.05;;;;;;;5.67;76.69;94138.72;4194158;28;20135;-70
2023/12/01 06:26:43;;;;;;;20.70;13.52;;;;;;;5.76;76.09;94155.25;4196147;28;20491;-72
2023/12/01 06:28:45;;;;;;;17.88;14.98;;;;;;;5.71;76.30;94118.47;4195590;28;20083;-69
2023/12/01 06:30:47;;;;;;;21.10;15.32;;;;;;;5.56;77.18;94149.31;4174091;28;20133;-69
2023/12/01 06:32:50;;;;;;;20.95;14.32;;;;;;;5.63;76.93;94146.94;4192457;28;20475;-68
2023/12/01 06:34:54;;;;;;;19.88;14.65;;;;;;;5.70;76.59;94129.81;4192651;28;20052;-70
2023/12/01 06:36:59;;;;;;;;;;;;;;;5.70;76.67;94153.19;4185857;28;20044;-70
2023/12/01 06:39:00;;;;;;;19.83;14.52;;;;;;;5.71;76.71;94136.66;4178606;28;19946;-71
2023/12/01 06:41:04;;;;;;;21.88;14.75;;;;;;;5.45;77.76;94121.72;4193757;28;20045;-72
2023/12/01 06:43:09;;;;;;;;;;;;;;;5.53;77.74;94165.19;4194077;28;20048;-70
2023/12/01 06:45:15;;;;;;;19.80;13.88;;;;;;;5.51;77.85;94128.13;4169491;28;19928;-70
2023/12/01 06:47:17;;;;;;;18.80;13.45;;;;;;;5.63;78.07;94150.34;4193062;28;20533;-70
2023/12/01 06:49:19;;;;;;;18.45;14.63;;;;;;;5.70;77.73;94112.47;4192813;28;20045;-69
2023/12/01 06:51:21;;;;;;;17.10;13.13;;;;;;;5.79;77.57;94148.97;4179379;28;20479;-69
2023/12/01 06:53:23;;;;;;;19.70;13.82;;;;;;;5.83;77.59;94124.28;4196530;28;20049;-69
2023/12/01 06:55:25;;;;;;;18.52;13.95;;;;;;;5.74;77.37;94121.63;4196388;28;20056;-70
2023/12/01 06:57:27;;;;;;;19.10;14.65;;;;;;;5.83;77.44;94171.06;4194538;28;20052;-70
2023/12/01 06:59:29;;;;;;;20.48;13.25;;;;;;;5.77;77.74;94123.09;4196438;28;20048;-70
2023/12/01 07:01:30;;;;;;;20.90;13.32;;;;;;;5.75;77.54;94138.00;4195450;28;20159;-70
2023/12/01 07:03:32;;;;;;;18.77;13.73;;;;;;;5.92;77.63;94168.44;4194918;28;20054;-72
2023/12/01 07:05:37;;;;;;;20.67;14.02;;;;;;;6.02;76.78;94163.22;4189677;28;20510;-70
2023/12/01 07:07:47;;;;;;;18.48;12.75;;;;;;;6.10;76.71;94157.31;4226392;27;20418;-70
2023/12/01 07:09:50;;;;;;;20.00;13.23;;;;;;;6.22;76.50;94186.56;4210124;28;20097;-71
2023/12/01 07:12:03;;;;;;;18.73;14.57;;;;;;;6.28;76.40;94152.13;4229759;28;20050;-71
2023/12/01 07:14:05;;;;;;;22.70;14.73;;;;;;;6.43;75.78;94176.72;4218284;28;20257;-70
2023/12/01 07:16:09;;;;;;;22.15;14.55;;;;;;;6.33;75.28;94145.53;4209767;28;20048;-70
2023/12/01 07:18:12;;;;;;;21.95;15.32;;;;;;;6.28;75.78;94154.72;4209250;28;20055;-71
2023/12/01 07:20:14;;;;;;;22.30;15.75;;;;;;;6.36;75.93;94141.81;4214934;28;20052;-70
2023/12/01 07:22:16;;;;;;;22.15;15.60;;;;;;;6.44;76.13;94121.09;4214973;28;20105;-70
2023/12/01 07:24:18;;;;;;;20.23;15.50;;;;;;;6.28;76.33;94154.72;4209485;28;20047;-70
2023/12/01 07:26:26;;;;;;;22.50;14.32;;;;;;;6.33;76.15;94129.94;4207692;28;20423;-70
2023/12/01 07:28:29;;;;;;;26.95;15.57;;;;;;;6.41;76.16;94126.59;4208052;28;20053;-71
2023/12/01 07:30:31;;;;;;;20.25;16.27;;;;;;;6.25;76.89;94131.63;4209578;28;20052;-70
2023/12/01 07:32:33;;;;;;;18.67;15.35;;;;;;;6.40;76.47;94145.75;4209480;28;20075;-70
2023/12/01 07:34:36;;;;;;;21.50;15.05;;;;;;;6.50;76.46;94132.69;4208976;28;20129;-70
2023/12/01 07:36:39;;;;;;;19.75;14.48;;;;;;;6.45;76.65;94134.91;4208753;28;20371;-71
2023/12/01 07:38:42;;;;;;;20.80;15.15;;;;;;;6.51;76.43;94116.91;4216763;28;20044;-71
2023/12/01 07:40:46;;;;;;;20.38;14.93;;;;;;;6.67;76.27;94123.25;4191574;28;20480;-71
2023/12/01 07:42:48;;;;;;;;;;;;;;;6.63;75.94;94138.34;4190556;28;20132;-69
2023/12/01 07:44:50;;;;;;;20.45;15.00;;;;;;;6.63;75.80;94150.56;4188786;28;19928;-69
2023/12/01 07:46:53;;;;;;;19.50;15.43;;;;;;;6.78;75.78;94133.44;4181047;28;20124;-70
2023/12/01 07:48:55;;;;;;;23.42;15.10;;;;;;;6.67;75.62;94160.53;4184209;28;20083;-72
2023/12/01 07:51:09;;;;;;;23.35;15.85;;;;;;;6.79;75.86;94163.69;4189924;28;20049;-70
2023/12/01 07:53:12;;;;;;;17.65;14.57;;;;;;;6.96;75.50;94162.88;4180399;28;20462;-71
2023/12/01 07:55:15;;;;;;;21.60;14.98;;;;;;;6.93;74.87;94137.16;4191016;28;20525;-72
2023/12/01 07:57:18;;;;;;;20.88;14.20;;;;;;;6.93;74.53;94150.16;4188729;28;20045;-70
2023/12/01 07:59:21;;;;;;;21.90;13.48;;;;;;;6.99;74.67;94161.78;4185838;28;20076;-71
2023/12/01 08:01:22;;;;;;;18.98;13.85;;;;;;;6.95;74.71;94130.00;4191893;28;20501;-71
2023/12/01 08:03:25;;;;;;;17.33;14.75;;;;;;;6.96;74.77;94128.22;4184765;28;20407;-72
2023/12/01 08:05:27;;;;;;;17.48;12.93;;;;;;;7.02;74.66;94169.28;4191877;28;20048;-71
2023/12/01 08:07:29;;;;;;;17.23;13.10;;;;;;;6.98;74.56;94163.53;4189769;28;20081;-71
2023/12/01 08:09:31;;;;;;;26.95;12.40;;;;;;;6.86;74.46;94161.31;4190312;28;20048;-71
2023/12/01 08:11:33;;;;;;;17.55;12.52;;;;;;;6.92;74.46;94184.16;4187089;28;20048;-70
2023/12/01 08:13:35;;;;;;;18.65;13.95;;;;;;;6.48;75.08;94148.47;4187060;28;20057;-69
2023/12/01 08:15:37;;;;;;;22.75;14.70;;;;;;;6.53;75.74;94167.03;4184808;28;20442;-71
2023/12/01 08:17:40;;;;;;;16.77;13.30;;;;;;;6.65;76.03;94178.06;4166850;28;20042;-70
2023/12/01 08:19:43;;;;;;;22.95;13.93;;;;;;;6.79;75.42;94150.69;4180420;28;20116;-70
2023/12/01 08:21:45;;;;;;;20.33;13.75;;;;;;;6.95;75.04;94163.03;4174252;28;20531;-70
2023/12/01 08:23:49;;;;;;;19.15;13.82;;;;;;;7.09;74.08;94162.50;4163923;28;20134;-70
2023/12/01 08:25:51;;;;;;;19.45;14.80;;;;;;;6.78;74.83;94148.25;4178488;28;20128;-71
2023/12/01 08:27:54;;;;;;;21.40;15.32;;;;;;;6.83;75.18;94195.47;4178525;28;20106;-70
2023/12/01 08:29:56;;;;;;;19.05;14.82;;;;;;;6.86;74.85;94185.59;4177607;28;20084;-70
2023/12/01 08:32:00;;;;;;;19.48;14.52;;;;;;;6.56;75.27;94161.56;4176837;28;20416;-70
2023/12/01 08:34:01;;;;;;;19.35;14.50;;;;;;;6.80;75.36;94191.38;4175617;28;20049;-70
2023/12/01 08:36:24;;;;;;;21.10;14.93;;;;;;;6.94;74.49;94177.00;4175255;28;20055;-71
2023/12/01 08:38:26;;;;;;;22.75;15.88;;;;;;;6.54;75.33;94154.88;4176754;28;20122;-70
2023/12/01 08:40:28;;;;;;;20.30;14.45;;;;;;;6.76;75.41;94197.84;4177263;28;20060;-71
2023/12/01 08:42:36;;;;;;;21.90;16.08;;;;;;;6.98;74.60;94178.34;4177199;28;20107;-71
2023/12/01 08:44:38;;;;;;;23.50;16.90;;;;;;;7.13;74.57;94136.97;4177531;28;20049;-70
2023/12/01 08:46:39;;;;;;;19.98;15.07;;;;;;;7.10;74.14;94164.13;4176413;28;20055;-69
2023/12/01 08:48:41;;;;;;;23.65;15.60;;;;;;;7.21;73.99;94154.47;4165104;28;20099;-71
2023/12/01 08:50:46;;;;;;;21.05;14.50;;;;;;;7.39;73.97;94156.03;4178721;28;20045;-71
2023/12/01 08:52:48;;;;;;;24.13;14.60;;;;;;;7.28;73.30;94153.69;4180529;28;20124;-70
2023/12/01 08:54:50;;;;;;;21.42;14.23;;;;;;;7.30;73.45;94149.13;4180831;28;20526;-69
2023/12/01 08:56:53;;;;;;;19.63;14.82;;;;;;;7.49;73.87;94161.16;4193774;28;20128;-69
2023/12/01 08:58:55;;;;;;;19.92;13.18;;;;;;;7.67;73.36;94129.81;4180072;28;20478;-69
2023/12/01 09:00:57;;;;;;;21.05;12.95;;;;;;;7.89;73.38;94117.19;4179515;28;20251;-70
2023/12/01 09:02:59;;;;;;;18.83;13.27;;;;;;;8.06;72.77;94121.50;4161093;28;20488;-69
2023/12/01 09:05:02;;;;;;;17.73;12.43;;;;;;;8.07;71.05;94091.03;4166403;28;20048;-71
2023/12/01 09:07:04;;;;;;;21.30;14.15;;;;;;;8.06;72.11;94123.28;4179879;28;20052;-71
2023/12/01 09:09:08;;;;;;;;;;;;;;;8.00;71.88;94127.34;4170003;28;20136;-71
2023/12/01 09:11:11;;;;;;;22.27;13.48;;;;;;;7.84;72.28;94103.81;4175367;28;19921;-71
2023/12/01 09:13:13;;;;;;;24.23;13.90;;;;;;;7.92;72.17;94111.69;4162366;28;20055;-71
2023/12/01 09:15:15;;;;;;;20.88;12.48;;;;;;;8.09;72.38;94121.19;4171468;28;20088;-70
2023/12/01 09:17:17;;;;;;;16.48;11.73;;;;;;;8.30;72.03;94101.66;4169504;28;20476;-70
2023/12/01 09:19:19;;;;;;;15.75;11.30;;;;;;;8.43;70.75;94109.88;4163915;28;20088;-70
2023/12/01 09:21:22;;;;;;;16.92;11.85;;;;;;;8.28;71.50;94072.31;4168623;28;20049;-69
2023/12/01 09:23:25;;;;;;;15.15;11.50;;;;;;;8.39;71.76;94100.72;4163963;28;20141;-70
2023/12/01 09:25:26;;;;;;;16.08;11.02;;;;;;;8.49;71.33;94127.50;4175857;28;20075;-69
2023/12/01 09:27:28;;;;;;;17.77;10.75;;;;;;;8.55;71.27;94116.44;4177894;28;20044;-71
2023/12/01 09:29:30;;;;;;;17.35;10.63;;;;;;;8.67;70.81;94150.91;4176996;28;20582;-70
2023/12/01 09:31:32;;;;;;;15.18;10.15;;;;;;;8.69;70.38;94122.00;4177002;28;20049;-70